sensor_id;sensor_type;location;lat;lon;timestamp;temperature;humidity
45643;DHT22;31358;46.008;11.144;2022-07-29T00:01:51;20.10;99.90
45643;DHT22;31358;46.008;11.144;2022-07-29T00:04:18;20.10;99.90
45643;DHT22;31358;46.008;11.144;2022-07-29T00:06:44;20.10;99.90
45643;DHT22;31358;46.008;11.144;2022-07-29T00:09:10;20.30;99.90
45643;DHT22;31358;46.008;11.144;2022-07-29T00:11:35;20.30;99.90
45643;DHT22;31358;46.008;11.144;2022-07-29T00:14:01;20.40;99.90
45643;DHT22;31358;46.008;11.144;2022-07-29T00:16:27;20.20;99.90
45643;DHT22;31358;46.008;11.144;2022-07-29T00:18:52;19.90;99.90
45643;DHT22;31358;46.008;11.144;2022-07-29T00:21:18;20.00;99.90
45643;DHT22;31358;46.008;11.144;2022-07-29T00:23:44;20.00;99.90
45643;DHT22;31358;46.008;11.144;2022-07-29T00:26:09;19.90;99.90
45643;DHT22;31358;46.008;11.144;2022-07-29T00:28:35;19.80;99.90
45643;DHT22;31358;46.008;11.144;2022-07-29T00:31:00;19.90;99.90
45643;DHT22;31358;46.008;11.144;2022-07-29T00:33:26;19.90;99.90
45643;DHT22;31358;46.008;11.144;2022-07-29T00:35:52;20.10;99.90
45643;DHT22;31358;46.008;11.144;2022-07-29T00:38:20;20.10;99.90
45643;DHT22;31358;46.008;11.144;2022-07-29T00:40:47;19.80;99.90
45643;DHT22;31358;46.008;11.144;2022-07-29T00:43:14;19.70;99.90
45643;DHT22;31358;46.008;11.144;2022-07-29T00:45:40;19.80;99.90
45643;DHT22;31358;46.008;11.144;2022-07-29T00:48:06;19.70;99.90
45643;DHT22;31358;46.008;11.144;2022-07-29T00:50:34;19.70;99.90
45643;DHT22;31358;46.008;11.144;2022-07-29T00:53:01;19.80;99.90
45643;DHT22;31358;46.008;11.144;2022-07-29T00:55:28;19.70;99.90
45643;DHT22;31358;46.008;11.144;2022-07-29T00:57:55;19.70;99.90
45643;DHT22;31358;46.008;11.144;2022-07-29T01:00:23;19.70;99.90
45643;DHT22;31358;46.008;11.144;2022-07-29T01:02:49;19.70;99.90
45643;DHT22;31358;46.008;11.144;2022-07-29T01:05:18;19.80;99.90
45643;DHT22;31358;46.008;11.144;2022-07-29T01:07:45;19.70;99.90
45643;DHT22;31358;46.008;11.144;2022-07-29T01:10:12;19.80;99.90
45643;DHT22;31358;46.008;11.144;2022-07-29T01:12:39;20.00;99.90
45643;DHT22;31358;46.008;11.144;2022-07-29T01:15:06;20.10;99.90
45643;DHT22;31358;46.008;11.144;2022-07-29T01:28:45;19.90;99.90
45643;DHT22;31358;46.008;11.144;2022-07-29T01:31:19;19.90;99.90
45643;DHT22;31358;46.008;11.144;2022-07-29T01:33:51;19.90;99.90
45643;DHT22;31358;46.008;11.144;2022-07-29T01:36:40;19.80;99.90
45643;DHT22;31358;46.008;11.144;2022-07-29T01:39:27;19.70;99.90
45643;DHT22;31358;46.008;11.144;2022-07-29T01:48:13;19.70;99.90
45643;DHT22;31358;46.008;11.144;2022-07-29T01:50:23;19.80;99.90
45643;DHT22;31358;46.008;11.144;2022-07-29T01:52:56;19.50;99.90
45643;DHT22;31358;46.008;11.144;2022-07-29T01:55:27;19.70;99.90
45643;DHT22;31358;46.008;11.144;2022-07-29T01:57:55;19.40;99.90
45643;DHT22;31358;46.008;11.144;2022-07-29T02:00:22;19.30;99.90
45643;DHT22;31358;46.008;11.144;2022-07-29T02:02:49;19.20;99.90
45643;DHT22;31358;46.008;11.144;2022-07-29T02:05:18;19.00;99.90
45643;DHT22;31358;46.008;11.144;2022-07-29T02:07:46;19.00;99.90
45643;DHT22;31358;46.008;11.144;2022-07-29T02:10:13;19.00;99.90
45643;DHT22;31358;46.008;11.144;2022-07-29T02:12:42;18.90;99.90
45643;DHT22;31358;46.008;11.144;2022-07-29T02:15:09;18.90;99.90
45643;DHT22;31358;46.008;11.144;2022-07-29T02:17:42;19.10;99.90
45643;DHT22;31358;46.008;11.144;2022-07-29T02:20:09;19.10;99.90
45643;DHT22;31358;46.008;11.144;2022-07-29T02:22:37;19.10;99.90
45643;DHT22;31358;46.008;11.144;2022-07-29T02:25:04;19.20;99.90
45643;DHT22;31358;46.008;11.144;2022-07-29T02:27:31;19.30;99.90
45643;DHT22;31358;46.008;11.144;2022-07-29T02:30:01;19.00;99.90
45643;DHT22;31358;46.008;11.144;2022-07-29T02:32:28;19.10;99.90
45643;DHT22;31358;46.008;11.144;2022-07-29T02:34:56;19.10;99.90
45643;DHT22;31358;46.008;11.144;2022-07-29T02:37:22;19.20;99.90
45643;DHT22;31358;46.008;11.144;2022-07-29T02:39:50;19.00;99.90
45643;DHT22;31358;46.008;11.144;2022-07-29T02:42:17;19.00;99.90
45643;DHT22;31358;46.008;11.144;2022-07-29T02:44:44;18.90;99.90
45643;DHT22;31358;46.008;11.144;2022-07-29T02:47:23;19.00;99.90
45643;DHT22;31358;46.008;11.144;2022-07-29T02:49:57;18.80;99.90
45643;DHT22;31358;46.008;11.144;2022-07-29T02:52:36;18.80;99.90
45643;DHT22;31358;46.008;11.144;2022-07-29T02:55:31;19.00;99.90
45643;DHT22;31358;46.008;11.144;2022-07-29T03:00:47;19.00;99.90
45643;DHT22;31358;46.008;11.144;2022-07-29T03:03:16;18.80;99.90
45643;DHT22;31358;46.008;11.144;2022-07-29T03:05:42;18.80;99.90
45643;DHT22;31358;46.008;11.144;2022-07-29T03:08:10;19.00;99.90
45643;DHT22;31358;46.008;11.144;2022-07-29T03:10:39;19.00;99.90
45643;DHT22;31358;46.008;11.144;2022-07-29T03:13:05;18.70;99.90
45643;DHT22;31358;46.008;11.144;2022-07-29T03:15:32;18.80;99.90
45643;DHT22;31358;46.008;11.144;2022-07-29T03:17:58;18.70;99.90
45643;DHT22;31358;46.008;11.144;2022-07-29T03:20:25;18.70;99.90
45643;DHT22;31358;46.008;11.144;2022-07-29T03:22:51;18.70;99.90
45643;DHT22;31358;46.008;11.144;2022-07-29T03:25:18;18.40;99.90
45643;DHT22;31358;46.008;11.144;2022-07-29T03:27:46;18.40;99.90
45643;DHT22;31358;46.008;11.144;2022-07-29T03:30:13;18.40;99.90
45643;DHT22;31358;46.008;11.144;2022-07-29T03:32:40;18.50;99.90
45643;DHT22;31358;46.008;11.144;2022-07-29T03:35:07;18.50;99.90
45643;DHT22;31358;46.008;11.144;2022-07-29T03:37:33;18.60;99.90
45643;DHT22;31358;46.008;11.144;2022-07-29T03:40:00;18.70;99.90
45643;DHT22;31358;46.008;11.144;2022-07-29T03:42:30;18.60;99.90
45643;DHT22;31358;46.008;11.144;2022-07-29T03:44:58;18.50;99.90
45643;DHT22;31358;46.008;11.144;2022-07-29T03:47:27;18.60;99.90
45643;DHT22;31358;46.008;11.144;2022-07-29T03:50:00;18.80;99.90
45643;DHT22;31358;46.008;11.144;2022-07-29T03:52:27;18.80;99.90
45643;DHT22;31358;46.008;11.144;2022-07-29T03:54:53;18.70;99.90
45643;DHT22;31358;46.008;11.144;2022-07-29T03:57:24;18.90;99.90
45643;DHT22;31358;46.008;11.144;2022-07-29T03:59:52;18.80;99.90
45643;DHT22;31358;46.008;11.144;2022-07-29T04:02:19;18.80;99.90
45643;DHT22;31358;46.008;11.144;2022-07-29T04:04:45;18.70;99.90
45643;DHT22;31358;46.008;11.144;2022-07-29T04:07:15;18.80;99.90
45643;DHT22;31358;46.008;11.144;2022-07-29T04:09:41;18.90;99.90
45643;DHT22;31358;46.008;11.144;2022-07-29T04:12:07;18.80;99.90
45643;DHT22;31358;46.008;11.144;2022-07-29T04:14:34;18.90;99.90
45643;DHT22;31358;46.008;11.144;2022-07-29T04:17:04;18.70;99.90
45643;DHT22;31358;46.008;11.144;2022-07-29T04:19:30;18.70;99.90
45643;DHT22;31358;46.008;11.144;2022-07-29T04:21:57;18.60;99.90
45643;DHT22;31358;46.008;11.144;2022-07-29T04:24:23;18.70;99.90
45643;DHT22;31358;46.008;11.144;2022-07-29T04:26:48;18.60;99.90
45643;DHT22;31358;46.008;11.144;2022-07-29T04:29:14;18.70;99.90
45643;DHT22;31358;46.008;11.144;2022-07-29T04:31:43;18.70;99.90
45643;DHT22;31358;46.008;11.144;2022-07-29T04:34:09;18.60;99.90
45643;DHT22;31358;46.008;11.144;2022-07-29T04:36:35;18.70;99.90
45643;DHT22;31358;46.008;11.144;2022-07-29T04:39:01;18.80;99.90
45643;DHT22;31358;46.008;11.144;2022-07-29T04:41:27;18.90;99.90
45643;DHT22;31358;46.008;11.144;2022-07-29T04:43:53;19.00;99.90
45643;DHT22;31358;46.008;11.144;2022-07-29T04:46:19;18.80;99.90
45643;DHT22;31358;46.008;11.144;2022-07-29T04:48:48;18.80;99.90
45643;DHT22;31358;46.008;11.144;2022-07-29T04:51:17;18.80;99.90
45643;DHT22;31358;46.008;11.144;2022-07-29T04:53:42;18.80;99.90
45643;DHT22;31358;46.008;11.144;2022-07-29T04:56:08;18.80;99.90
45643;DHT22;31358;46.008;11.144;2022-07-29T04:58:36;18.80;99.90
45643;DHT22;31358;46.008;11.144;2022-07-29T05:01:03;18.70;99.90
45643;DHT22;31358;46.008;11.144;2022-07-29T05:03:29;18.90;99.90
45643;DHT22;31358;46.008;11.144;2022-07-29T05:05:55;18.90;99.90
45643;DHT22;31358;46.008;11.144;2022-07-29T05:08:20;19.00;99.90
45643;DHT22;31358;46.008;11.144;2022-07-29T05:10:46;19.00;99.90
45643;DHT22;31358;46.008;11.144;2022-07-29T05:13:12;18.90;99.90
45643;DHT22;31358;46.008;11.144;2022-07-29T05:15:38;18.80;99.90
45643;DHT22;31358;46.008;11.144;2022-07-29T05:18:04;18.90;99.90
45643;DHT22;31358;46.008;11.144;2022-07-29T05:20:30;19.00;99.90
45643;DHT22;31358;46.008;11.144;2022-07-29T05:22:58;19.00;99.90
45643;DHT22;31358;46.008;11.144;2022-07-29T05:25:25;19.00;99.90
45643;DHT22;31358;46.008;11.144;2022-07-29T05:27:51;18.90;99.90
45643;DHT22;31358;46.008;11.144;2022-07-29T05:30:16;18.90;99.90
45643;DHT22;31358;46.008;11.144;2022-07-29T05:32:42;18.90;99.90
45643;DHT22;31358;46.008;11.144;2022-07-29T05:35:08;19.00;99.90
45643;DHT22;31358;46.008;11.144;2022-07-29T05:37:34;19.00;99.90
45643;DHT22;31358;46.008;11.144;2022-07-29T05:40:00;18.80;99.90
45643;DHT22;31358;46.008;11.144;2022-07-29T05:42:26;18.80;99.90
45643;DHT22;31358;46.008;11.144;2022-07-29T05:44:53;18.70;99.90
45643;DHT22;31358;46.008;11.144;2022-07-29T05:47:19;18.80;99.90
45643;DHT22;31358;46.008;11.144;2022-07-29T05:49:44;18.90;99.90
45643;DHT22;31358;46.008;11.144;2022-07-29T05:52:11;19.10;99.90
45643;DHT22;31358;46.008;11.144;2022-07-29T05:54:39;19.20;99.90
45643;DHT22;31358;46.008;11.144;2022-07-29T05:57:05;19.20;99.90
45643;DHT22;31358;46.008;11.144;2022-07-29T05:59:31;19.20;99.90
45643;DHT22;31358;46.008;11.144;2022-07-29T06:02:00;19.30;99.90
45643;DHT22;31358;46.008;11.144;2022-07-29T06:04:25;19.30;99.90
45643;DHT22;31358;46.008;11.144;2022-07-29T06:06:51;19.30;99.90
45643;DHT22;31358;46.008;11.144;2022-07-29T06:09:17;19.50;99.90
45643;DHT22;31358;46.008;11.144;2022-07-29T06:11:43;19.40;99.90
45643;DHT22;31358;46.008;11.144;2022-07-29T06:14:09;19.50;99.90
45643;DHT22;31358;46.008;11.144;2022-07-29T06:16:34;19.60;99.90
45643;DHT22;31358;46.008;11.144;2022-07-29T06:19:00;19.60;99.90
45643;DHT22;31358;46.008;11.144;2022-07-29T06:21:26;19.70;99.90
45643;DHT22;31358;46.008;11.144;2022-07-29T06:23:51;19.90;99.90
45643;DHT22;31358;46.008;11.144;2022-07-29T06:26:17;19.90;99.90
45643;DHT22;31358;46.008;11.144;2022-07-29T06:28:42;19.90;99.90
45643;DHT22;31358;46.008;11.144;2022-07-29T06:31:08;20.10;99.90
45643;DHT22;31358;46.008;11.144;2022-07-29T06:33:34;20.30;99.90
45643;DHT22;31358;46.008;11.144;2022-07-29T06:35:59;20.10;99.90
45643;DHT22;31358;46.008;11.144;2022-07-29T06:38:25;20.10;99.90
45643;DHT22;31358;46.008;11.144;2022-07-29T06:40:51;20.10;99.90
45643;DHT22;31358;46.008;11.144;2022-07-29T06:43:30;20.30;99.90
45643;DHT22;31358;46.008;11.144;2022-07-29T06:46:02;20.50;99.90
45643;DHT22;31358;46.008;11.144;2022-07-29T06:48:28;20.50;99.90
45643;DHT22;31358;46.008;11.144;2022-07-29T06:50:54;20.50;99.90
45643;DHT22;31358;46.008;11.144;2022-07-29T06:53:20;20.70;99.90
45643;DHT22;31358;46.008;11.144;2022-07-29T06:55:46;20.70;99.90
45643;DHT22;31358;46.008;11.144;2022-07-29T06:58:11;20.80;99.90
45643;DHT22;31358;46.008;11.144;2022-07-29T07:00:39;21.10;99.90
45643;DHT22;31358;46.008;11.144;2022-07-29T07:03:05;21.30;99.90
45643;DHT22;31358;46.008;11.144;2022-07-29T07:05:30;21.50;99.90
45643;DHT22;31358;46.008;11.144;2022-07-29T07:07:56;21.80;99.90
45643;DHT22;31358;46.008;11.144;2022-07-29T07:10:22;22.10;99.90
45643;DHT22;31358;46.008;11.144;2022-07-29T07:12:47;22.30;99.90
45643;DHT22;31358;46.008;11.144;2022-07-29T07:15:13;22.50;99.90
45643;DHT22;31358;46.008;11.144;2022-07-29T07:17:38;22.50;99.90
45643;DHT22;31358;46.008;11.144;2022-07-29T07:20:05;22.80;99.90
45643;DHT22;31358;46.008;11.144;2022-07-29T07:22:31;23.00;99.90
45643;DHT22;31358;46.008;11.144;2022-07-29T07:24:57;22.80;99.90
45643;DHT22;31358;46.008;11.144;2022-07-29T07:27:22;22.80;99.90
45643;DHT22;31358;46.008;11.144;2022-07-29T07:29:48;22.50;99.90
45643;DHT22;31358;46.008;11.144;2022-07-29T07:32:14;22.50;99.90
45643;DHT22;31358;46.008;11.144;2022-07-29T07:34:42;24.10;99.90
45643;DHT22;31358;46.008;11.144;2022-07-29T07:37:08;26.50;97.50
45643;DHT22;31358;46.008;11.144;2022-07-29T07:39:34;28.00;94.90
45643;DHT22;31358;46.008;11.144;2022-07-29T07:42:00;28.50;92.40
45643;DHT22;31358;46.008;11.144;2022-07-29T07:44:26;28.20;92.80
45643;DHT22;31358;46.008;11.144;2022-07-29T07:46:52;27.10;93.60
45643;DHT22;31358;46.008;11.144;2022-07-29T07:49:17;25.40;95.60
45643;DHT22;31358;46.008;11.144;2022-07-29T07:51:43;24.50;96.90
45643;DHT22;31358;46.008;11.144;2022-07-29T07:54:09;26.90;94.50
45643;DHT22;31358;46.008;11.144;2022-07-29T07:56:35;28.60;93.00
45643;DHT22;31358;46.008;11.144;2022-07-29T07:59:00;28.60;91.80
45643;DHT22;31358;46.008;11.144;2022-07-29T08:01:26;29.00;92.70
45643;DHT22;31358;46.008;11.144;2022-07-29T08:03:52;27.80;92.50
45643;DHT22;31358;46.008;11.144;2022-07-29T08:06:17;26.30;92.60
45643;DHT22;31358;46.008;11.144;2022-07-29T08:08:43;25.20;95.40
45643;DHT22;31358;46.008;11.144;2022-07-29T08:11:09;24.50;95.70
45643;DHT22;31358;46.008;11.144;2022-07-29T08:13:35;24.70;97.00
45643;DHT22;31358;46.008;11.144;2022-07-29T08:16:01;26.80;94.50
45643;DHT22;31358;46.008;11.144;2022-07-29T08:18:29;27.70;93.60
45643;DHT22;31358;46.008;11.144;2022-07-29T08:20:56;27.60;92.90
45643;DHT22;31358;46.008;11.144;2022-07-29T08:23:22;28.20;92.40
45643;DHT22;31358;46.008;11.144;2022-07-29T08:25:49;27.60;93.20
45643;DHT22;31358;46.008;11.144;2022-07-29T08:28:14;26.80;93.70
45643;DHT22;31358;46.008;11.144;2022-07-29T08:30:40;26.40;94.20
45643;DHT22;31358;46.008;11.144;2022-07-29T08:33:05;26.40;94.10
45643;DHT22;31358;46.008;11.144;2022-07-29T08:35:31;25.90;93.30
45643;DHT22;31358;46.008;11.144;2022-07-29T08:37:57;25.50;94.30
45643;DHT22;31358;46.008;11.144;2022-07-29T08:40:23;24.80;94.30
45643;DHT22;31358;46.008;11.144;2022-07-29T08:42:50;24.70;94.70
45643;DHT22;31358;46.008;11.144;2022-07-29T08:45:15;24.90;94.50
45643;DHT22;31358;46.008;11.144;2022-07-29T08:47:44;24.50;94.50
45643;DHT22;31358;46.008;11.144;2022-07-29T08:50:11;25.00;94.80
45643;DHT22;31358;46.008;11.144;2022-07-29T08:52:40;24.60;96.60
45643;DHT22;31358;46.008;11.144;2022-07-29T08:55:08;24.60;95.80
45643;DHT22;31358;46.008;11.144;2022-07-29T08:57:34;25.00;95.50
45643;DHT22;31358;46.008;11.144;2022-07-29T09:00:03;25.10;95.40
45643;DHT22;31358;46.008;11.144;2022-07-29T09:02:35;25.50;95.60
45643;DHT22;31358;46.008;11.144;2022-07-29T09:05:01;25.90;94.30
45643;DHT22;31358;46.008;11.144;2022-07-29T09:07:28;25.50;93.50
45643;DHT22;31358;46.008;11.144;2022-07-29T09:09:54;25.30;93.70
45643;DHT22;31358;46.008;11.144;2022-07-29T09:12:20;25.70;93.90
45643;DHT22;31358;46.008;11.144;2022-07-29T09:14:47;25.40;94.30
45643;DHT22;31358;46.008;11.144;2022-07-29T09:17:13;25.40;96.00
45643;DHT22;31358;46.008;11.144;2022-07-29T09:19:42;25.50;94.40
45643;DHT22;31358;46.008;11.144;2022-07-29T09:22:07;25.60;94.60
45643;DHT22;31358;46.008;11.144;2022-07-29T09:24:46;25.40;93.70
45643;DHT22;31358;46.008;11.144;2022-07-29T09:27:23;25.50;94.00
45643;DHT22;31358;46.008;11.144;2022-07-29T09:29:59;25.70;94.40
45643;DHT22;31358;46.008;11.144;2022-07-29T09:32:25;25.70;94.00
45643;DHT22;31358;46.008;11.144;2022-07-29T09:35:14;25.50;94.90
45643;DHT22;31358;46.008;11.144;2022-07-29T09:37:40;25.80;94.90
45643;DHT22;31358;46.008;11.144;2022-07-29T09:40:17;26.30;95.40
45643;DHT22;31358;46.008;11.144;2022-07-29T09:42:43;26.10;94.90
45643;DHT22;31358;46.008;11.144;2022-07-29T09:45:09;25.90;95.20
45643;DHT22;31358;46.008;11.144;2022-07-29T09:47:46;26.50;95.90
45643;DHT22;31358;46.008;11.144;2022-07-29T09:50:15;26.90;95.00
45643;DHT22;31358;46.008;11.144;2022-07-29T09:52:49;26.40;94.50
45643;DHT22;31358;46.008;11.144;2022-07-29T09:55:16;26.70;95.50
45643;DHT22;31358;46.008;11.144;2022-07-29T09:57:42;26.70;93.80
45643;DHT22;31358;46.008;11.144;2022-07-29T10:00:17;26.70;93.30
45643;DHT22;31358;46.008;11.144;2022-07-29T10:02:45;26.70;93.30
45643;DHT22;31358;46.008;11.144;2022-07-29T10:05:19;26.70;94.00
45643;DHT22;31358;46.008;11.144;2022-07-29T10:07:58;27.10;93.30
45643;DHT22;31358;46.008;11.144;2022-07-29T10:12:57;27.00;93.40
45643;DHT22;31358;46.008;11.144;2022-07-29T10:15:28;27.20;93.40
45643;DHT22;31358;46.008;11.144;2022-07-29T10:17:55;27.30;92.40
45643;DHT22;31358;46.008;11.144;2022-07-29T10:20:22;27.10;92.60
45643;DHT22;31358;46.008;11.144;2022-07-29T10:22:49;27.30;92.50
45643;DHT22;31358;46.008;11.144;2022-07-29T10:25:16;27.50;92.50
45643;DHT22;31358;46.008;11.144;2022-07-29T10:27:46;27.60;92.40
45643;DHT22;31358;46.008;11.144;2022-07-29T10:30:14;28.00;92.50
45643;DHT22;31358;46.008;11.144;2022-07-29T10:38:27;27.60;92.10
45643;DHT22;31358;46.008;11.144;2022-07-29T10:46:27;28.30;92.10
45643;DHT22;31358;46.008;11.144;2022-07-29T10:49:11;28.40;91.70
45643;DHT22;31358;46.008;11.144;2022-07-29T10:57:30;28.00;91.00
45643;DHT22;31358;46.008;11.144;2022-07-29T11:07:39;28.70;90.50
45643;DHT22;31358;46.008;11.144;2022-07-29T11:15:19;28.60;90.90
45643;DHT22;31358;46.008;11.144;2022-07-29T11:18:06;28.50;91.60
45643;DHT22;31358;46.008;11.144;2022-07-29T11:20:46;28.20;91.30
45643;DHT22;31358;46.008;11.144;2022-07-29T11:23:32;28.00;91.80
45643;DHT22;31358;46.008;11.144;2022-07-29T11:31:38;27.70;92.20
45643;DHT22;31358;46.008;11.144;2022-07-29T11:39:37;27.70;92.10
45643;DHT22;31358;46.008;11.144;2022-07-29T11:47:41;27.80;91.80
45643;DHT22;31358;46.008;11.144;2022-07-29T11:50:17;27.70;93.00
45643;DHT22;31358;46.008;11.144;2022-07-29T11:52:46;27.60;92.10
45643;DHT22;31358;46.008;11.144;2022-07-29T11:55:17;27.60;92.60
45643;DHT22;31358;46.008;11.144;2022-07-29T11:57:50;27.60;92.50
45643;DHT22;31358;46.008;11.144;2022-07-29T12:00:29;27.70;92.60
45643;DHT22;31358;46.008;11.144;2022-07-29T12:02:56;27.70;92.90
45643;DHT22;31358;46.008;11.144;2022-07-29T12:08:12;27.60;90.90
45643;DHT22;31358;46.008;11.144;2022-07-29T12:10:39;27.60;92.20
45643;DHT22;31358;46.008;11.144;2022-07-29T12:13:05;27.50;93.00
45643;DHT22;31358;46.008;11.144;2022-07-29T12:15:32;27.60;92.60
45643;DHT22;31358;46.008;11.144;2022-07-29T12:17:57;27.70;94.40
45643;DHT22;31358;46.008;11.144;2022-07-29T12:20:28;27.60;93.40
45643;DHT22;31358;46.008;11.144;2022-07-29T12:22:55;27.50;96.10
45643;DHT22;31358;46.008;11.144;2022-07-29T12:25:23;27.40;94.70
45643;DHT22;31358;46.008;11.144;2022-07-29T12:28:03;27.30;93.90
45643;DHT22;31358;46.008;11.144;2022-07-29T12:30:44;27.20;93.30
45643;DHT22;31358;46.008;11.144;2022-07-29T12:33:12;27.00;95.00
45643;DHT22;31358;46.008;11.144;2022-07-29T12:35:38;26.90;95.50
45643;DHT22;31358;46.008;11.144;2022-07-29T12:38:04;26.90;95.40
45643;DHT22;31358;46.008;11.144;2022-07-29T12:40:30;26.70;97.20
45643;DHT22;31358;46.008;11.144;2022-07-29T12:45:41;26.70;97.00
45643;DHT22;31358;46.008;11.144;2022-07-29T12:48:08;26.90;96.80
45643;DHT22;31358;46.008;11.144;2022-07-29T12:50:35;27.00;94.80
45643;DHT22;31358;46.008;11.144;2022-07-29T12:53:13;27.10;94.70
45643;DHT22;31358;46.008;11.144;2022-07-29T12:55:44;27.10;95.50
45643;DHT22;31358;46.008;11.144;2022-07-29T13:01:15;27.10;96.10
45643;DHT22;31358;46.008;11.144;2022-07-29T13:03:51;27.20;96.00
45643;DHT22;31358;46.008;11.144;2022-07-29T13:06:33;27.40;95.70
45643;DHT22;31358;46.008;11.144;2022-07-29T13:09:35;27.30;95.20
45643;DHT22;31358;46.008;11.144;2022-07-29T13:11:52;27.50;95.30
45643;DHT22;31358;46.008;11.144;2022-07-29T13:14:38;27.60;94.60
45643;DHT22;31358;46.008;11.144;2022-07-29T13:19:39;27.60;95.20
45643;DHT22;31358;46.008;11.144;2022-07-29T13:22:07;27.70;95.50
45643;DHT22;31358;46.008;11.144;2022-07-29T13:24:34;27.80;94.60
45643;DHT22;31358;46.008;11.144;2022-07-29T13:27:00;27.80;94.30
45643;DHT22;31358;46.008;11.144;2022-07-29T13:29:25;27.60;93.30
45643;DHT22;31358;46.008;11.144;2022-07-29T13:31:52;27.70;93.40
45643;DHT22;31358;46.008;11.144;2022-07-29T13:34:18;27.80;93.60
45643;DHT22;31358;46.008;11.144;2022-07-29T13:36:45;28.10;94.30
45643;DHT22;31358;46.008;11.144;2022-07-29T13:39:11;28.20;93.70
45643;DHT22;31358;46.008;11.144;2022-07-29T13:41:37;28.40;94.10
45643;DHT22;31358;46.008;11.144;2022-07-29T13:44:02;28.40;92.90
45643;DHT22;31358;46.008;11.144;2022-07-29T13:46:28;28.30;93.90
45643;DHT22;31358;46.008;11.144;2022-07-29T13:48:54;28.30;93.30
45643;DHT22;31358;46.008;11.144;2022-07-29T13:51:19;28.30;93.80
45643;DHT22;31358;46.008;11.144;2022-07-29T13:53:45;28.60;93.00
45643;DHT22;31358;46.008;11.144;2022-07-29T13:56:10;29.10;93.50
45643;DHT22;31358;46.008;11.144;2022-07-29T13:58:36;29.10;93.70
45643;DHT22;31358;46.008;11.144;2022-07-29T14:01:02;28.90;93.40
45643;DHT22;31358;46.008;11.144;2022-07-29T14:03:28;29.30;92.80
45643;DHT22;31358;46.008;11.144;2022-07-29T14:05:53;29.30;93.50
45643;DHT22;31358;46.008;11.144;2022-07-29T14:08:19;29.10;93.80
45643;DHT22;31358;46.008;11.144;2022-07-29T14:10:45;29.00;91.70
45643;DHT22;31358;46.008;11.144;2022-07-29T14:13:10;29.00;91.60
45643;DHT22;31358;46.008;11.144;2022-07-29T14:15:36;29.00;90.80
45643;DHT22;31358;46.008;11.144;2022-07-29T14:18:02;28.70;91.20
45643;DHT22;31358;46.008;11.144;2022-07-29T14:20:28;28.80;91.70
45643;DHT22;31358;46.008;11.144;2022-07-29T14:22:55;28.70;91.40
45643;DHT22;31358;46.008;11.144;2022-07-29T14:25:22;28.60;91.80
45643;DHT22;31358;46.008;11.144;2022-07-29T14:27:48;28.40;91.30
45643;DHT22;31358;46.008;11.144;2022-07-29T14:30:14;28.40;91.50
45643;DHT22;31358;46.008;11.144;2022-07-29T14:32:39;28.40;91.20
45643;DHT22;31358;46.008;11.144;2022-07-29T14:35:06;28.30;91.40
45643;DHT22;31358;46.008;11.144;2022-07-29T14:37:32;28.00;91.20
45643;DHT22;31358;46.008;11.144;2022-07-29T14:39:57;27.90;91.50
45643;DHT22;31358;46.008;11.144;2022-07-29T14:42:27;27.60;91.30
45643;DHT22;31358;46.008;11.144;2022-07-29T14:44:52;27.60;92.00
45643;DHT22;31358;46.008;11.144;2022-07-29T14:47:18;27.40;92.00
45643;DHT22;31358;46.008;11.144;2022-07-29T14:49:44;27.30;92.00
45643;DHT22;31358;46.008;11.144;2022-07-29T14:52:10;27.40;92.10
45643;DHT22;31358;46.008;11.144;2022-07-29T14:54:36;27.40;92.20
45643;DHT22;31358;46.008;11.144;2022-07-29T14:57:01;27.40;92.10
45643;DHT22;31358;46.008;11.144;2022-07-29T14:59:27;27.30;92.20
45643;DHT22;31358;46.008;11.144;2022-07-29T15:01:53;27.20;92.00
45643;DHT22;31358;46.008;11.144;2022-07-29T15:04:19;27.20;92.50
45643;DHT22;31358;46.008;11.144;2022-07-29T15:06:45;27.00;92.40
45643;DHT22;31358;46.008;11.144;2022-07-29T15:09:11;26.90;92.20
45643;DHT22;31358;46.008;11.144;2022-07-29T15:11:37;26.90;92.20
45643;DHT22;31358;46.008;11.144;2022-07-29T15:14:02;26.80;92.50
45643;DHT22;31358;46.008;11.144;2022-07-29T15:16:28;26.80;92.70
45643;DHT22;31358;46.008;11.144;2022-07-29T15:18:54;26.80;92.40
45643;DHT22;31358;46.008;11.144;2022-07-29T15:21:19;26.70;92.70
45643;DHT22;31358;46.008;11.144;2022-07-29T15:23:45;26.60;92.90
45643;DHT22;31358;46.008;11.144;2022-07-29T15:26:11;26.60;93.10
45643;DHT22;31358;46.008;11.144;2022-07-29T15:28:36;26.50;93.20
45643;DHT22;31358;46.008;11.144;2022-07-29T15:31:02;26.40;93.50
45643;DHT22;31358;46.008;11.144;2022-07-29T15:33:27;26.30;93.40
45643;DHT22;31358;46.008;11.144;2022-07-29T15:35:55;26.30;93.50
45643;DHT22;31358;46.008;11.144;2022-07-29T15:38:20;26.30;93.10
45643;DHT22;31358;46.008;11.144;2022-07-29T15:40:46;26.20;93.30
45643;DHT22;31358;46.008;11.144;2022-07-29T15:43:12;26.20;93.60
45643;DHT22;31358;46.008;11.144;2022-07-29T15:45:42;26.10;93.70
45643;DHT22;31358;46.008;11.144;2022-07-29T15:48:27;26.00;93.30
45643;DHT22;31358;46.008;11.144;2022-07-29T15:50:53;25.90;93.70
45643;DHT22;31358;46.008;11.144;2022-07-29T15:53:19;25.60;93.90
45643;DHT22;31358;46.008;11.144;2022-07-29T15:55:44;25.50;94.00
45643;DHT22;31358;46.008;11.144;2022-07-29T15:58:10;25.20;94.60
45643;DHT22;31358;46.008;11.144;2022-07-29T16:00:35;24.80;95.80
45643;DHT22;31358;46.008;11.144;2022-07-29T16:03:01;24.60;97.00
45643;DHT22;31358;46.008;11.144;2022-07-29T16:05:27;24.30;98.50
45643;DHT22;31358;46.008;11.144;2022-07-29T16:07:54;24.00;99.00
45643;DHT22;31358;46.008;11.144;2022-07-29T16:10:20;23.70;99.70
45643;DHT22;31358;46.008;11.144;2022-07-29T16:12:45;23.40;99.90
45643;DHT22;31358;46.008;11.144;2022-07-29T16:15:11;23.10;99.90
45643;DHT22;31358;46.008;11.144;2022-07-29T16:17:37;22.90;99.90
45643;DHT22;31358;46.008;11.144;2022-07-29T16:20:04;22.80;99.90
45643;DHT22;31358;46.008;11.144;2022-07-29T16:22:30;22.60;99.90
45643;DHT22;31358;46.008;11.144;2022-07-29T16:24:56;22.50;99.90
45643;DHT22;31358;46.008;11.144;2022-07-29T16:27:21;22.40;99.90
45643;DHT22;31358;46.008;11.144;2022-07-29T16:29:51;22.40;99.90
45643;DHT22;31358;46.008;11.144;2022-07-29T16:32:17;22.30;99.90
45643;DHT22;31358;46.008;11.144;2022-07-29T16:34:43;22.20;99.90
45643;DHT22;31358;46.008;11.144;2022-07-29T16:37:09;21.90;99.90
45643;DHT22;31358;46.008;11.144;2022-07-29T16:39:34;21.60;99.90